createdAt,value
2018-04-15T00:00:07.263Z,96.28
2018-04-15T00:01:09.787Z,74.35
2018-04-15T00:02:13.075Z,76.68
2018-04-15T00:03:16.363Z,77.35
2018-04-15T00:04:19.671Z,79.32
2018-04-15T00:05:22.252Z,80.12
2018-04-15T00:06:24.783Z,91.32
2018-04-15T00:07:27.337Z,85.05
2018-04-15T00:08:30.622Z,90.00
2018-04-15T00:09:33.923Z,93.78
2018-04-15T00:10:36.514Z,88.75
2018-04-15T00:11:39.058Z,86.60
2018-04-15T00:12:41.601Z,85.07
2018-04-15T00:13:44.907Z,88.68
2018-04-15T00:14:47.461Z,85.85
2018-04-15T00:15:50.789Z,87.88
2018-04-15T00:16:53.329Z,83.57
2018-04-15T00:17:55.863Z,90.40
2018-04-15T00:18:58.398Z,86.05
2018-04-15T00:20:00.928Z,90.38
2018-04-15T00:21:03.501Z,82.60
2018-04-15T00:22:06.049Z,90.97
2018-04-15T00:23:09.345Z,82.03
2018-04-15T00:24:11.921Z,80.70
2018-04-15T00:25:14.465Z,84.18
2018-04-15T00:26:17.770Z,88.32
2018-04-15T00:27:20.312Z,88.30
2018-04-15T00:28:23.603Z,95.00
2018-04-15T00:29:26.934Z,80.05
2018-04-15T00:30:29.464Z,88.03
2018-04-15T00:31:31.995Z,84.78
2018-04-15T00:32:34.534Z,78.97
2018-04-15T00:33:37.076Z,88.75
2018-04-15T00:34:39.636Z,86.25
2018-04-15T00:35:42.176Z,83.80
2018-04-15T00:36:45.478Z,86.87
2018-04-15T00:37:48.011Z,92.47
2018-04-15T00:38:50.530Z,83.28
2018-04-15T00:39:53.092Z,87.40
2018-04-15T00:40:55.619Z,92.15
2018-04-15T00:41:58.931Z,91.43
2018-04-15T00:43:01.472Z,79.95
2018-04-15T00:44:04.766Z,79.87
2018-04-15T00:45:08.083Z,77.90
2018-04-15T00:46:10.613Z,78.85
2018-04-15T00:47:13.895Z,80.05
2018-04-15T00:48:17.215Z,86.80
2018-04-15T00:49:19.781Z,87.12
2018-04-15T00:50:22.311Z,90.18
2018-04-15T00:51:25.604Z,85.57
2018-04-15T00:52:28.144Z,93.40
2018-04-15T00:53:42.620Z,86.12
2018-04-15T00:54:45.186Z,88.05
2018-04-15T00:55:47.717Z,86.30
2018-04-15T00:56:50.275Z,81.37
2018-04-15T00:57:52.799Z,89.32
2018-04-15T00:58:55.316Z,84.47
2018-04-15T00:59:57.891Z,77.00
2018-04-15T01:01:00.418Z,83.43
2018-04-15T01:02:02.948Z,82.32
2018-04-15T01:03:05.495Z,80.87
2018-04-15T01:04:08.791Z,88.95
2018-04-15T01:05:12.115Z,79.57
2018-04-15T01:06:14.642Z,78.47
2018-04-15T01:07:17.939Z,76.62
2018-04-15T01:08:20.509Z,85.80
2018-04-15T01:10:31.948Z,79.45
2018-04-15T01:11:34.493Z,78.60
2018-04-15T01:12:37.032Z,78.62
2018-04-15T01:13:39.609Z,89.18
2018-04-15T01:14:42.171Z,84.28
2018-04-15T01:15:44.691Z,83.10
2018-04-15T01:16:47.224Z,87.20
2018-04-15T01:17:49.751Z,84.18
2018-04-15T01:18:52.315Z,80.75
2018-04-15T01:19:54.843Z,87.62
2018-04-15T01:20:57.373Z,83.55
2018-04-15T01:21:59.940Z,94.53
2018-04-15T01:23:02.465Z,83.12
2018-04-15T01:24:05.759Z,88.05
2018-04-15T01:25:09.085Z,80.82
2018-04-15T01:26:11.607Z,85.10
2018-04-15T01:27:14.939Z,84.70
2018-04-15T01:28:17.515Z,80.90
2018-04-15T01:29:20.044Z,83.82
2018-04-15T01:30:22.567Z,81.28
2018-04-15T01:31:25.132Z,86.43
2018-04-15T01:32:27.672Z,86.15
2018-04-15T01:33:30.205Z,82.43
2018-04-15T01:34:32.735Z,82.25
2018-04-15T01:35:36.039Z,79.12
2018-04-15T01:36:39.358Z,79.75
2018-04-15T01:37:41.880Z,84.32
2018-04-15T01:38:45.213Z,87.90
2018-04-15T01:39:47.735Z,81.75
2018-04-15T01:40:51.028Z,81.00
2018-04-15T01:41:53.551Z,88.62
2018-04-15T01:42:56.092Z,78.07
2018-04-15T01:43:58.668Z,83.80
2018-04-15T01:45:01.191Z,89.28
2018-04-15T01:46:04.499Z,86.22
2018-04-15T01:47:07.019Z,94.62
2018-04-15T01:48:10.325Z,84.60
2018-04-15T01:49:13.647Z,82.60
2018-04-15T01:50:16.168Z,87.32
2018-04-15T01:51:18.703Z,84.40
2018-04-15T01:52:21.241Z,87.68
2018-04-15T01:53:23.770Z,83.62
2018-04-15T01:54:27.105Z,91.97
2018-04-15T01:55:29.624Z,84.70
2018-04-15T01:56:32.920Z,85.18
2018-04-15T01:57:35.458Z,88.87
2018-04-15T01:58:38.764Z,94.18
2018-04-15T01:59:41.325Z,83.40
2018-04-15T02:00:44.616Z,91.22
2018-04-15T02:01:47.147Z,86.25
2018-04-15T02:02:49.676Z,79.25
2018-04-15T02:03:52.207Z,82.43
2018-04-15T02:04:55.547Z,81.28
2018-04-15T02:05:58.063Z,90.80
2018-04-15T02:07:00.604Z,88.30
2018-04-15T02:08:03.899Z,88.65
2018-04-15T02:09:07.188Z,88.22
2018-04-15T02:10:10.511Z,103.65
2018-04-15T02:11:13.027Z,92.03
2018-04-15T02:12:16.325Z,89.68
2018-04-15T02:13:19.607Z,90.50
2018-04-15T02:14:22.895Z,87.35
2018-04-15T02:15:25.466Z,92.45
2018-04-15T02:16:27.995Z,80.87
2018-04-15T02:17:30.515Z,84.68
2018-04-15T02:18:33.048Z,85.35
2018-04-15T02:19:36.331Z,102.25
2018-04-15T02:20:39.663Z,91.50
2018-04-15T02:21:42.183Z,90.95
2018-04-15T02:22:45.489Z,87.25
2018-04-15T02:23:48.039Z,102.10
2018-04-15T02:24:51.327Z,85.97
2018-04-15T02:25:54.655Z,95.25
2018-04-15T02:26:57.177Z,86.93
2018-04-15T02:28:00.464Z,92.50
2018-04-15T02:29:03.000Z,95.90
2018-04-15T02:30:05.520Z,91.95
2018-04-15T02:31:08.107Z,91.63
2018-04-15T02:32:10.663Z,86.43
2018-04-15T02:33:13.190Z,91.20
2018-04-15T02:34:16.484Z,84.22
2018-04-15T02:35:19.012Z,88.45
2018-04-15T02:36:21.577Z,93.20
2018-04-15T02:37:24.101Z,93.85
2018-04-15T02:38:26.638Z,95.38
2018-04-15T02:39:29.935Z,96.30
2018-04-15T02:40:32.458Z,88.97
2018-04-15T02:41:35.023Z,81.78
2018-04-15T02:42:37.558Z,83.32
2018-04-15T02:43:40.105Z,94.40
2018-04-15T02:44:42.637Z,87.72
2018-04-15T02:45:45.157Z,86.40
2018-04-15T02:46:47.720Z,93.12
2018-04-15T02:47:50.252Z,96.82
2018-04-15T02:48:53.550Z,89.50
2018-04-15T02:49:56.128Z,88.20
2018-04-15T02:50:58.670Z,94.40
2018-04-15T02:52:01.203Z,88.75
2018-04-15T02:53:03.725Z,87.68
2018-04-15T02:54:06.249Z,92.43
2018-04-15T02:55:09.582Z,96.87
2018-04-15T02:56:12.142Z,91.05
2018-04-15T02:57:14.670Z,98.10
2018-04-15T02:58:17.988Z,95.07
2018-04-15T02:59:20.525Z,93.78
2018-04-15T03:00:23.824Z,96.22
2018-04-15T03:01:26.369Z,92.15
2018-04-15T03:02:29.760Z,92.93
2018-04-15T03:03:33.057Z,93.22
2018-04-15T03:04:36.347Z,100.87
2018-04-15T03:05:38.885Z,93.97
2018-04-15T03:06:41.418Z,92.60
2018-04-15T03:07:44.004Z,99.13
2018-04-15T03:08:46.547Z,98.57
2018-04-15T03:09:49.080Z,94.75
2018-04-15T03:10:51.614Z,91.47
2018-04-15T03:11:54.149Z,97.30
2018-04-15T03:12:56.715Z,84.57
2018-04-15T03:13:59.247Z,86.43
2018-04-15T03:15:01.786Z,91.78
2018-04-15T03:16:04.316Z,87.93
2018-04-15T03:17:06.873Z,90.62
2018-04-15T03:18:09.400Z,88.12
2018-04-15T03:19:12.704Z,89.00
2018-04-15T03:20:15.259Z,92.00
2018-04-15T03:21:17.784Z,91.95
2018-04-15T03:22:20.308Z,96.12
2018-04-15T03:23:22.839Z,104.43
2018-04-15T03:24:26.138Z,89.35
2018-04-15T03:25:28.691Z,97.35
2018-04-15T03:26:31.980Z,93.75
2018-04-15T03:27:35.276Z,97.75
2018-04-15T03:28:37.813Z,84.28
2018-04-15T03:29:40.348Z,96.15
2018-04-15T03:30:42.916Z,89.82
2018-04-15T03:31:45.448Z,91.57
2018-04-15T03:32:48.012Z,95.80
2018-04-15T03:33:50.575Z,98.62
2018-04-15T03:34:53.103Z,95.57
2018-04-15T03:35:55.632Z,93.53
2018-04-15T03:36:58.200Z,97.50
2018-04-15T03:38:00.733Z,95.93
2018-04-15T03:39:03.264Z,101.10
2018-04-15T03:40:05.787Z,99.87
2018-04-15T03:41:08.355Z,101.95
2018-04-15T03:42:10.893Z,113.50
2018-04-15T03:43:14.189Z,107.47
2018-04-15T03:44:16.713Z,99.60
2018-04-15T03:45:19.256Z,105.55
2018-04-15T03:46:21.821Z,109.55
2018-04-15T03:47:24.340Z,93.28
2018-04-15T03:48:27.636Z,88.90
2018-04-15T03:49:30.169Z,96.72
2018-04-15T03:50:32.696Z,98.72
2018-04-15T03:51:35.250Z,98.82
2018-04-15T03:52:37.815Z,91.60
2018-04-15T03:53:40.336Z,92.40
2018-04-15T03:54:42.863Z,99.50
2018-04-15T03:55:45.395Z,101.95
2018-04-15T03:56:47.911Z,99.10
2018-04-15T03:57:50.467Z,98.75
2018-04-15T03:58:52.991Z,106.50
2018-04-15T03:59:56.275Z,91.53
2018-04-15T04:00:58.813Z,101.38
2018-04-15T04:02:01.343Z,101.72
2018-04-15T04:03:03.981Z,97.22
2018-04-15T04:04:06.520Z,96.80
2018-04-15T04:05:09.093Z,105.68
2018-04-15T04:06:12.390Z,102.25
2018-04-15T04:07:14.928Z,100.65
2018-04-15T04:08:17.544Z,94.37
2018-04-15T04:09:20.069Z,92.62
2018-04-15T04:10:22.643Z,100.40
2018-04-15T04:11:25.986Z,89.22
2018-04-15T04:12:28.485Z,93.03
2018-04-15T04:13:31.016Z,85.60
2018-04-15T04:14:33.540Z,94.00
2018-04-15T04:15:36.855Z,91.32
2018-04-15T04:16:39.400Z,95.05
2018-04-15T04:17:53.823Z,94.75
2018-04-15T04:21:07.575Z,96.60
2018-04-15T04:22:22.680Z,89.50
2018-04-15T04:23:37.053Z,90.25
2018-04-15T04:24:51.381Z,92.25
2018-04-15T04:26:02.784Z,104.55
2018-04-15T04:27:06.073Z,92.05
2018-04-15T04:28:09.376Z,100.20
2018-04-15T04:29:11.928Z,97.55
2018-04-15T04:30:15.225Z,101.47
2018-04-15T04:31:17.749Z,96.87
2018-04-15T04:32:20.324Z,100.10
2018-04-15T04:33:22.856Z,101.70
2018-04-15T04:34:26.152Z,101.65
2018-04-15T04:35:28.683Z,98.93
2018-04-15T04:36:31.212Z,100.12
2018-04-15T04:37:33.772Z,99.62
2018-04-15T04:38:36.300Z,96.85
2018-04-15T04:39:38.830Z,99.97
2018-04-15T04:40:42.111Z,97.78
2018-04-15T04:41:45.405Z,97.82
2018-04-15T04:42:47.985Z,100.25
2018-04-15T04:43:50.516Z,99.03
2018-04-15T04:44:53.806Z,95.53
2018-04-15T04:45:57.104Z,101.20
2018-04-15T04:46:59.629Z,94.53
2018-04-15T04:48:02.215Z,99.95
2018-04-15T04:49:05.518Z,95.30
2018-04-15T04:50:08.048Z,97.28
2018-04-15T04:51:10.576Z,96.30
2018-04-15T04:52:13.099Z,93.20
2018-04-15T04:53:16.447Z,92.72
2018-04-15T04:54:18.981Z,99.55
2018-04-15T04:55:21.549Z,103.03
2018-04-15T04:56:24.081Z,92.55
2018-04-15T04:57:27.407Z,92.70
2018-04-15T04:58:30.074Z,95.43
2018-04-15T04:59:32.613Z,104.85
2018-04-15T05:00:35.904Z,94.40
2018-04-15T05:01:38.469Z,95.22
2018-04-15T05:02:41.020Z,88.35
2018-04-15T05:03:44.307Z,97.10
2018-04-15T05:04:47.591Z,94.32
2018-04-15T05:05:50.879Z,89.62
2018-04-15T05:06:54.174Z,100.22
2018-04-15T05:07:56.727Z,92.35
2018-04-15T05:09:00.016Z,94.62
2018-04-15T05:10:03.312Z,92.53
2018-04-15T05:11:05.845Z,98.32
2018-04-15T05:12:08.376Z,110.72
2018-04-15T05:13:10.937Z,95.43
2018-04-15T05:14:13.501Z,95.57
2018-04-15T05:15:16.040Z,93.15
2018-04-15T05:16:18.562Z,93.50
2018-04-15T05:17:21.099Z,91.47
2018-04-15T05:18:23.623Z,112.47
2018-04-15T05:19:26.943Z,96.05
2018-04-15T05:20:29.528Z,97.18
2018-04-15T05:21:32.050Z,90.55
2018-04-15T05:22:34.583Z,88.95
2018-04-15T05:23:37.202Z,92.28
2018-04-15T05:24:39.727Z,97.43
2018-04-15T05:25:42.288Z,93.78
2018-04-15T05:26:44.823Z,93.30
2018-04-15T05:27:47.359Z,104.22
2018-04-15T05:28:49.900Z,92.43
2018-04-15T05:29:53.237Z,102.00
2018-04-15T05:30:55.770Z,96.63
2018-04-15T05:31:58.298Z,93.32
2018-04-15T05:33:00.830Z,94.72
2018-04-15T05:34:03.350Z,99.93
2018-04-15T05:35:06.675Z,97.25
2018-04-15T05:36:09.210Z,89.72
2018-04-15T05:37:12.503Z,85.90
2018-04-15T05:38:15.055Z,89.03
2018-04-15T05:39:18.353Z,90.30
2018-04-15T05:40:20.892Z,89.03
2018-04-15T05:41:24.241Z,87.05
2018-04-15T05:42:26.776Z,88.57
2018-04-15T05:43:29.334Z,92.22
2018-04-15T05:44:31.879Z,81.00
2018-04-15T05:45:34.400Z,79.68
2018-04-15T05:46:36.930Z,84.18
2018-04-15T05:47:40.295Z,90.85
2018-04-15T05:48:42.857Z,84.10
2018-04-15T05:49:45.375Z,80.85
2018-04-15T05:50:47.915Z,82.65
2018-04-15T05:51:51.219Z,79.95
2018-04-15T05:52:53.816Z,77.55
2018-04-15T05:53:56.360Z,82.97
2018-04-15T05:54:58.938Z,81.97
2018-04-15T05:56:01.469Z,87.70
2018-04-15T05:57:04.000Z,87.25
2018-04-15T05:58:06.529Z,83.60
2018-04-15T05:59:09.102Z,84.65
2018-04-15T06:00:11.622Z,85.55
2018-04-15T06:01:14.909Z,89.95
2018-04-15T06:02:18.232Z,82.70
2018-04-15T06:03:20.751Z,91.50
2018-04-15T06:04:24.068Z,92.78
2018-04-15T06:05:26.599Z,97.00
2018-04-15T06:06:29.905Z,87.95
2018-04-15T06:07:32.434Z,95.82
2018-04-15T06:08:34.964Z,98.35
2018-04-15T06:09:37.524Z,91.50
2018-04-15T06:10:40.050Z,87.85
2018-04-15T06:11:43.384Z,93.47
2018-04-15T06:12:45.919Z,94.20
2018-04-15T06:13:48.452Z,94.78
2018-04-15T06:14:50.982Z,96.12
2018-04-15T06:15:53.555Z,95.78
2018-04-15T06:16:56.081Z,95.80
2018-04-15T06:17:58.615Z,97.05
2018-04-15T06:19:01.188Z,104.40
2018-04-15T06:20:04.498Z,101.70
2018-04-15T06:21:07.080Z,102.62
2018-04-15T06:22:09.614Z,99.50
2018-04-15T06:23:12.935Z,108.00
2018-04-15T06:24:15.455Z,91.22
2018-04-15T06:25:17.980Z,103.03
2018-04-15T06:26:20.536Z,99.65
2018-04-15T06:27:23.071Z,102.28
2018-04-15T06:28:26.368Z,99.30
2018-04-15T06:29:28.908Z,95.65
2018-04-15T06:30:32.206Z,98.90
2018-04-15T06:31:35.532Z,104.75
2018-04-15T06:32:38.061Z,107.80
2018-04-15T06:33:41.357Z,103.45
2018-04-15T06:34:43.879Z,99.78
2018-04-15T06:35:46.444Z,95.95
2018-04-15T06:36:49.029Z,101.93
2018-04-15T06:37:51.511Z,98.47
2018-04-15T06:38:54.078Z,92.88
2018-04-15T06:39:57.375Z,98.60
2018-04-15T06:40:59.956Z,101.68
2018-04-15T06:42:02.496Z,94.32
2018-04-15T06:43:05.833Z,101.07
2018-04-15T06:44:08.368Z,95.32
2018-04-15T06:45:10.900Z,97.20
2018-04-15T06:46:13.469Z,94.07
2018-04-15T06:47:16.760Z,94.10
2018-04-15T06:48:20.052Z,102.20
2018-04-15T06:49:22.575Z,97.28
2018-04-15T06:50:25.100Z,100.40
2018-04-15T06:51:27.663Z,101.70
2018-04-15T06:52:30.187Z,103.00
2018-04-15T06:53:32.735Z,88.32
2018-04-15T06:54:35.363Z,91.95
2018-04-15T06:55:37.883Z,85.25
2018-04-15T06:56:40.444Z,93.10
2018-04-15T06:57:42.967Z,87.88
2018-04-15T06:58:45.524Z,86.43
2018-04-15T06:59:48.058Z,92.00
2018-04-15T07:00:51.356Z,86.68
2018-04-15T07:01:54.649Z,86.18
2018-04-15T07:02:57.177Z,85.38
2018-04-15T07:03:59.733Z,87.93
2018-04-15T07:05:02.270Z,85.70
2018-04-15T07:06:04.800Z,92.62
2018-04-15T07:07:08.101Z,82.62
2018-04-15T07:08:10.691Z,93.07
2018-04-15T07:09:13.233Z,91.35
2018-04-15T07:10:15.759Z,87.57
2018-04-15T07:11:18.287Z,92.00
2018-04-15T07:12:20.812Z,89.32
2018-04-15T07:13:24.147Z,88.70
2018-04-15T07:14:26.680Z,101.85
2018-04-15T07:15:29.220Z,95.85
2018-04-15T07:16:31.777Z,94.78
2018-04-15T07:17:34.302Z,102.35
2018-04-15T07:18:36.869Z,101.90
2018-04-15T07:19:39.400Z,97.62
2018-04-15T07:20:42.691Z,96.90
2018-04-15T07:21:45.236Z,100.00
2018-04-15T07:22:48.585Z,89.93
2018-04-15T07:23:51.112Z,89.97
2018-04-15T07:24:53.643Z,97.68
2018-04-15T07:25:56.162Z,93.65
2018-04-15T07:26:58.691Z,99.05
2018-04-15T07:28:02.032Z,95.53
2018-04-15T07:29:04.568Z,106.72
2018-04-15T07:30:07.099Z,102.03
2018-04-15T07:31:09.637Z,99.72
2018-04-15T07:32:12.165Z,97.85
2018-04-15T07:33:14.739Z,100.07
2018-04-15T07:34:17.319Z,95.03
2018-04-15T07:35:19.836Z,95.22
2018-04-15T07:36:23.153Z,103.28
2018-04-15T07:37:25.687Z,93.20
2018-04-15T07:38:28.215Z,92.90
2018-04-15T07:39:30.776Z,96.05
2018-04-15T07:40:33.313Z,97.20
2018-04-15T07:41:35.852Z,95.57
2018-04-15T07:42:38.380Z,98.05
2018-04-15T07:43:40.928Z,94.70
2018-04-15T07:44:43.491Z,91.85
2018-04-15T07:45:46.027Z,100.07
2018-04-15T07:46:49.330Z,101.07
2018-04-15T07:47:51.851Z,97.88
2018-04-15T07:48:54.380Z,104.12
2018-04-15T07:49:56.941Z,95.68
2018-04-15T07:50:59.504Z,99.78
2018-04-15T07:52:02.040Z,101.45
2018-04-15T07:53:05.344Z,100.43
2018-04-15T07:54:07.876Z,98.68
2018-04-15T07:55:10.395Z,97.07
2018-04-15T07:56:13.018Z,102.07
2018-04-15T07:57:15.524Z,103.22
2018-04-15T07:58:18.084Z,100.62
2018-04-15T07:59:20.622Z,98.47
2018-04-15T08:00:23.946Z,106.28
2018-04-15T08:01:26.521Z,101.97
2018-04-15T08:02:29.051Z,99.03
2018-04-15T08:03:31.575Z,94.55
2018-04-15T08:04:34.119Z,98.45
2018-04-15T08:05:36.643Z,93.47
2018-04-15T08:06:39.229Z,103.70
2018-04-15T08:07:41.781Z,90.93
2018-04-15T08:08:44.331Z,90.80
2018-04-15T08:09:47.665Z,95.75
2018-04-15T08:10:50.205Z,94.80
2018-04-15T08:11:52.740Z,100.70
2018-04-15T08:12:55.272Z,101.47
2018-04-15T08:13:58.559Z,99.43
2018-04-15T08:15:01.124Z,96.75
2018-04-15T08:16:03.666Z,99.25
2018-04-15T08:17:06.259Z,97.57
2018-04-15T08:18:08.774Z,95.50
2018-04-15T08:19:12.107Z,97.10
2018-04-15T08:20:14.645Z,100.47
2018-04-15T08:21:17.179Z,109.53
2018-04-15T08:22:20.484Z,102.55
2018-04-15T08:23:23.073Z,92.88
2018-04-15T08:24:25.644Z,90.10
2018-04-15T08:25:28.193Z,107.95
2018-04-15T08:26:30.724Z,99.45
2018-04-15T08:27:34.036Z,100.03
2018-04-15T08:28:36.569Z,98.32
2018-04-15T08:29:39.149Z,101.55
2018-04-15T08:30:42.445Z,93.75
2018-04-15T08:31:45.743Z,106.55
2018-04-15T08:32:48.279Z,111.00
2018-04-15T08:33:50.812Z,101.85
2018-04-15T08:34:53.369Z,108.78
2018-04-15T08:35:55.899Z,103.03
2018-04-15T08:36:58.414Z,97.12
2018-04-15T08:38:00.940Z,101.22
2018-04-15T08:39:03.465Z,95.15
2018-04-15T08:40:06.033Z,101.20
2018-04-15T08:41:08.566Z,101.35
2018-04-15T08:42:11.857Z,98.45
2018-04-15T08:43:14.489Z,95.80
2018-04-15T08:44:17.773Z,107.32
2018-04-15T08:45:20.309Z,101.57
2018-04-15T08:46:22.839Z,100.70
2018-04-15T08:47:25.420Z,96.28
2018-04-15T08:48:27.942Z,93.97
2018-04-15T08:49:30.467Z,114.32
2018-04-15T08:50:33.001Z,100.47
2018-04-15T08:51:35.531Z,89.95
2018-04-15T08:52:38.098Z,101.22
2018-04-15T08:53:40.640Z,93.53
2018-04-15T08:54:43.173Z,97.10
2018-04-15T08:55:45.699Z,96.43
2018-04-15T08:56:48.232Z,89.90
2018-04-15T08:57:50.799Z,84.40
2018-04-15T08:58:53.316Z,95.82
2018-04-15T08:59:55.837Z,87.30
2018-04-15T09:00:58.366Z,87.95
2018-04-15T09:02:00.891Z,81.25
2018-04-15T09:03:03.447Z,87.95
2018-04-15T09:04:06.737Z,80.82
2018-04-15T09:05:09.272Z,84.15
2018-04-15T09:06:11.818Z,79.37
2018-04-15T09:07:14.354Z,77.10
2018-04-15T09:08:16.940Z,73.68
2018-04-15T09:09:19.467Z,77.53
2018-04-15T09:10:22.805Z,80.43
2018-04-15T09:11:25.337Z,72.03
2018-04-15T09:12:27.867Z,75.43
2018-04-15T09:13:31.359Z,77.72
2018-04-15T09:14:34.651Z,83.95
2018-04-15T09:15:37.981Z,77.35
2018-04-15T09:16:40.519Z,79.07
2018-04-15T09:17:43.043Z,72.82
2018-04-15T09:18:45.567Z,75.40
2018-04-15T09:19:48.128Z,75.53
2018-04-15T09:20:50.690Z,69.62
2018-04-15T09:21:53.227Z,73.18
2018-04-15T09:22:56.524Z,76.18
2018-04-15T09:23:59.889Z,76.35
2018-04-15T09:25:02.423Z,72.37
2018-04-15T09:26:04.951Z,73.50
2018-04-15T09:27:07.479Z,69.37
2018-04-15T09:28:10.009Z,63.63
2018-04-15T09:29:12.531Z,73.78
2018-04-15T09:30:15.865Z,63.47
2018-04-15T09:31:18.391Z,70.07
2018-04-15T09:32:21.720Z,64.70
2018-04-15T09:33:24.257Z,63.20
2018-04-15T09:34:26.835Z,67.22
2018-04-15T09:35:29.354Z,63.40
2018-04-15T09:36:31.883Z,63.45
2018-04-15T09:37:34.412Z,57.83
2018-04-15T09:38:36.948Z,54.10
2018-04-15T09:39:39.522Z,52.53
2018-04-15T09:40:42.811Z,55.85
2018-04-15T09:41:46.104Z,55.80
2018-04-15T09:42:49.400Z,49.83
2018-04-15T09:43:51.927Z,51.78
2018-04-15T09:44:54.488Z,47.85
2018-04-15T09:45:57.019Z,55.85
2018-04-15T09:46:59.539Z,48.65
2018-04-15T09:48:02.829Z,48.60
2018-04-15T09:49:06.120Z,47.75
2018-04-15T09:50:09.475Z,51.05
2018-04-15T09:51:12.006Z,47.47
2018-04-15T09:52:14.534Z,46.53
2018-04-15T09:53:17.825Z,54.55
2018-04-15T09:54:20.348Z,52.25
2018-04-15T09:55:22.920Z,51.92
2018-04-15T09:56:25.449Z,50.95
2018-04-15T09:57:27.973Z,52.97
2018-04-15T09:58:31.309Z,58.50
2018-04-15T09:59:33.857Z,44.13
2018-04-15T10:00:36.380Z,42.70
2018-04-15T10:01:38.914Z,51.13
2018-04-15T10:02:41.438Z,52.28
2018-04-15T10:03:44.003Z,48.20
2018-04-15T10:04:46.533Z,48.87
2018-04-15T10:05:49.068Z,48.08
2018-04-15T10:06:51.595Z,51.17
2018-04-15T10:07:54.899Z,54.60
2018-04-15T10:08:57.468Z,50.70
2018-04-15T10:09:59.992Z,52.17
2018-04-15T10:11:02.517Z,51.25
2018-04-15T10:12:05.813Z,49.72
2018-04-15T10:13:08.345Z,46.97
2018-04-15T10:14:10.928Z,51.63
2018-04-15T10:15:13.459Z,51.10
2018-04-15T10:16:16.750Z,51.63
2018-04-15T10:17:20.039Z,48.45
2018-04-15T10:18:22.573Z,59.08
2018-04-15T10:19:25.146Z,47.62
2018-04-15T10:20:27.671Z,50.30
2018-04-15T10:21:30.190Z,49.85
2018-04-15T10:22:33.486Z,51.13
2018-04-15T10:23:36.009Z,43.08
2018-04-15T10:24:38.584Z,40.30
2018-04-15T10:25:41.128Z,47.53
2018-04-15T10:26:43.681Z,39.47
2018-04-15T10:27:46.983Z,40.65
2018-04-15T10:28:49.515Z,43.58
2018-04-15T10:29:52.083Z,41.42
2018-04-15T10:30:54.612Z,39.13
2018-04-15T10:31:57.141Z,40.97
2018-04-15T10:32:59.668Z,41.75
2018-04-15T10:34:02.234Z,35.70
2018-04-15T10:35:04.772Z,39.22
2018-04-15T10:36:07.340Z,38.05
2018-04-15T10:37:09.859Z,34.30
2018-04-15T10:38:12.398Z,35.30
2018-04-15T10:39:14.933Z,35.92
2018-04-15T10:40:17.473Z,37.80
2018-04-15T10:41:20.052Z,34.67
2018-04-15T10:42:22.589Z,35.25
2018-04-15T10:43:25.109Z,41.53
2018-04-15T10:44:28.398Z,30.58
2018-04-15T10:45:31.681Z,34.33
2018-04-15T10:46:34.269Z,31.92
2018-04-15T10:47:36.800Z,33.60
2018-04-15T10:48:39.330Z,29.37
2018-04-15T10:49:41.857Z,31.92
2018-04-15T10:50:44.392Z,32.80
2018-04-15T10:51:46.959Z,29.52
2018-04-15T10:52:49.494Z,29.23
2018-04-15T10:53:52.020Z,31.58
2018-04-15T10:54:55.317Z,25.52
2018-04-15T10:55:57.840Z,29.92
2018-04-15T10:57:00.407Z,29.77
2018-04-15T10:58:03.727Z,30.05
2018-04-15T10:59:06.309Z,31.50
2018-04-15T11:00:08.837Z,30.33
2018-04-15T11:01:12.143Z,30.65
2018-04-15T11:02:14.684Z,32.60
2018-04-15T11:03:17.216Z,32.67
2018-04-15T11:04:19.793Z,36.65
2018-04-15T11:05:22.327Z,37.80
2018-04-15T11:06:24.901Z,36.22
2018-04-15T11:07:27.429Z,34.78
2018-04-15T11:08:30.727Z,35.28
2018-04-15T11:09:33.256Z,34.60
2018-04-15T11:10:35.820Z,35.15
2018-04-15T11:11:38.348Z,36.97
2018-04-15T11:12:40.915Z,36.15
2018-04-15T11:13:43.468Z,37.83
2018-04-15T11:14:46.012Z,34.37
2018-04-15T11:15:49.312Z,41.07
2018-04-15T11:16:51.882Z,37.83
2018-04-15T11:17:54.420Z,32.73
2018-04-15T11:18:57.746Z,39.20
2018-04-15T11:20:00.313Z,32.37
2018-04-15T11:21:03.578Z,33.73
2018-04-15T11:22:06.120Z,34.23
2018-04-15T11:23:09.419Z,29.53
2018-04-15T11:24:12.739Z,30.30
2018-04-15T11:25:15.275Z,27.60
2018-04-15T11:26:17.805Z,29.53
2018-04-15T11:27:20.341Z,36.33
2018-04-15T11:28:22.935Z,31.20
2018-04-15T11:29:25.475Z,37.50
2018-04-15T11:30:27.997Z,32.80
2018-04-15T11:31:31.292Z,29.00
2018-04-15T11:32:34.604Z,28.40
2018-04-15T11:33:37.164Z,27.33
2018-04-15T11:34:39.691Z,23.17
2018-04-15T11:35:42.997Z,21.97
2018-04-15T11:36:45.522Z,24.50
2018-04-15T11:37:48.845Z,23.13
2018-04-15T11:38:51.429Z,23.23
2018-04-15T11:39:53.966Z,24.47
2018-04-15T11:40:57.293Z,22.60
2018-04-15T11:41:59.870Z,31.60
2018-04-15T11:43:02.380Z,26.37
2018-04-15T11:44:05.720Z,25.13
2018-04-15T11:45:08.297Z,19.63
2018-04-15T11:46:10.807Z,18.17
2018-04-15T11:47:14.101Z,17.17
2018-04-15T11:48:16.635Z,15.63
2018-04-15T11:49:19.207Z,23.13
2018-04-15T11:50:22.512Z,20.20
2018-04-15T11:51:25.079Z,18.70
2018-04-15T11:52:28.361Z,19.00
2018-04-15T11:53:30.890Z,22.57
2018-04-15T11:54:33.492Z,33.53
2018-04-15T11:55:36.785Z,21.50
2018-04-15T11:56:39.312Z,23.80
2018-04-15T11:57:41.840Z,21.60
2018-04-15T11:58:45.140Z,27.47
2018-04-15T11:59:47.701Z,27.07
2018-04-15T12:00:50.237Z,27.10
2018-04-15T12:01:52.779Z,23.40
2018-04-15T12:02:56.076Z,24.80
2018-04-15T12:03:59.365Z,24.27
2018-04-15T12:05:01.921Z,20.17
2018-04-15T12:06:05.215Z,26.40
2018-04-15T12:07:07.758Z,21.70
2018-04-15T12:08:11.055Z,23.83
2018-04-15T12:09:14.386Z,22.57
2018-04-15T12:10:16.939Z,23.47
2018-04-15T12:11:19.511Z,26.87
2018-04-15T12:12:22.039Z,23.97
2018-04-15T12:13:25.332Z,23.40
2018-04-15T12:14:27.864Z,28.03
2018-04-15T12:15:30.389Z,24.23
2018-04-15T12:16:32.943Z,19.00
2018-04-15T12:17:35.482Z,19.63
2018-04-15T12:18:38.791Z,24.00
2018-04-15T12:19:41.334Z,23.57
2018-04-15T12:20:44.656Z,19.70
2018-04-15T12:21:47.179Z,22.33
2018-04-15T12:22:49.730Z,22.93
2018-04-15T12:23:52.296Z,22.00
2018-04-15T12:24:54.844Z,19.20
2018-04-15T12:25:57.378Z,21.80
2018-04-15T12:26:59.907Z,23.63
2018-04-15T12:28:03.203Z,20.77
2018-04-15T12:29:06.549Z,22.40
2018-04-15T12:30:09.080Z,19.33
2018-04-15T12:31:11.656Z,20.17
2018-04-15T12:32:14.194Z,23.40
2018-04-15T12:33:16.724Z,20.87
2018-04-15T12:34:19.257Z,21.10
2018-04-15T12:35:21.838Z,21.87
2018-04-15T12:36:24.378Z,21.60
2018-04-15T12:37:26.926Z,20.77
2018-04-15T12:38:29.463Z,20.93
2018-04-15T12:39:31.987Z,25.67
2018-04-15T12:40:34.593Z,23.67
2018-04-15T12:41:37.119Z,21.73
2018-04-15T12:42:39.654Z,22.30
2018-04-15T12:43:42.188Z,18.47
2018-04-15T12:44:44.722Z,19.90
2018-04-15T12:45:47.288Z,20.53
2018-04-15T12:46:49.817Z,19.40
2018-04-15T12:47:53.103Z,22.30
2018-04-15T12:48:56.427Z,22.57
2018-04-15T12:49:58.955Z,22.57
2018-04-15T12:51:02.255Z,24.60
2018-04-15T12:52:04.796Z,22.00
2018-04-15T12:53:08.119Z,23.00
2018-04-15T12:54:10.647Z,21.90
2018-04-15T12:55:13.939Z,24.60
2018-04-15T12:56:17.276Z,19.93
2018-04-15T12:57:19.799Z,18.77
2018-04-15T12:58:22.329Z,22.17
2018-04-15T12:59:24.868Z,20.27
2018-04-15T13:00:27.429Z,20.33
2018-04-15T13:01:29.996Z,19.87
2018-04-15T13:02:32.516Z,27.40
2018-04-15T13:03:35.844Z,20.30
2018-04-15T13:04:38.368Z,21.30
2018-04-15T13:05:40.904Z,21.07
2018-04-15T13:06:43.435Z,20.50
2018-04-15T13:07:45.968Z,21.37
2018-04-15T13:08:48.535Z,23.63
2018-04-15T13:09:51.868Z,20.50
2018-04-15T13:10:54.388Z,23.37
2018-04-15T13:11:56.917Z,20.97
2018-04-15T13:12:59.444Z,21.93
2018-04-15T13:14:01.972Z,19.27
2018-04-15T13:15:05.304Z,20.73
2018-04-15T13:16:08.610Z,20.33
2018-04-15T13:17:11.149Z,17.57
2018-04-15T13:18:13.704Z,18.63
2018-04-15T13:19:16.253Z,19.07
2018-04-15T13:20:19.554Z,18.23
2018-04-15T13:21:22.083Z,24.80
2018-04-15T13:22:24.616Z,19.90
2018-04-15T13:23:27.191Z,22.07
2018-04-15T13:24:29.771Z,19.83
2018-04-15T13:25:32.303Z,21.23
2018-04-15T13:26:34.840Z,21.23
2018-04-15T13:27:37.367Z,17.47
2018-04-15T13:28:39.928Z,18.40